Airport View

Enter AWOS ICAO identifier for current METAR.

ex. KFNL

KRDG 011254Z 00000KT 10SM CLR 14/12 A2991 RMK AO2 SLP132 T01390122 $

1 Oct 2020 13:53

Phone: 610-372-9863

Other Area AWOS: KPTW - KLNS - KMQS - KXLL

TAF KRDG 011120Z 0112/0212 VRB03KT P6SM BKN120 FM011400 28007KT P6SM FEW050 SCT120 FM020000 VRB03KT P6SM SCT070 BKN100 FM020400 VRB03KT P6SM -SHRA SCT040 OVC050